createdAt,value
2023-10-04T00:02:14.948Z,12.93
2023-10-04T00:04:45.468Z,13.00
2023-10-04T00:07:13.147Z,13.00
2023-10-04T00:09:40.418Z,13.60
2023-10-04T00:12:09.758Z,14.43
2023-10-04T00:17:04.300Z,13.95
2023-10-04T00:19:33.695Z,13.82
2023-10-04T00:22:03.156Z,13.43
2023-10-04T00:24:30.275Z,13.50
2023-10-04T00:26:58.741Z,13.32
2023-10-04T00:29:27.148Z,13.43
2023-10-04T00:31:54.416Z,14.65
2023-10-04T00:34:21.497Z,12.88
2023-10-04T00:36:49.579Z,13.40
2023-10-04T00:39:16.960Z,13.45
2023-10-04T00:41:44.519Z,13.63
2023-10-04T00:44:12.192Z,14.65
2023-10-04T00:46:43.173Z,14.10
2023-10-04T00:49:10.514Z,13.73
2023-10-04T00:51:38.484Z,13.57
2023-10-04T00:54:09.534Z,13.55
2023-10-04T00:56:40.135Z,14.13
2023-10-04T00:59:08.782Z,13.88
2023-10-04T01:01:42.027Z,13.45
2023-10-04T01:04:10.481Z,13.23
2023-10-04T01:06:38.920Z,15.23
2023-10-04T01:09:07.713Z,14.07
2023-10-04T01:11:36.930Z,14.00
2023-10-04T01:14:19.832Z,14.38
2023-10-04T01:16:46.816Z,13.27
2023-10-04T01:19:17.362Z,13.45
2023-10-04T01:21:44.943Z,15.10
2023-10-04T01:24:12.481Z,13.88
2023-10-04T01:26:40.390Z,13.73
2023-10-04T01:29:13.150Z,15.30
2023-10-04T01:31:40.642Z,15.68
2023-10-04T01:34:07.807Z,16.15
2023-10-04T01:36:37.989Z,15.00
2023-10-04T01:39:08.863Z,15.13
2023-10-04T01:41:40.353Z,14.65
2023-10-04T01:44:11.141Z,15.77
2023-10-04T01:46:39.714Z,13.60
2023-10-04T01:49:10.622Z,14.50
2023-10-04T01:51:37.967Z,14.07
2023-10-04T01:54:06.282Z,15.00
2023-10-04T01:56:33.800Z,14.82
2023-10-04T01:59:01.575Z,16.10
2023-10-04T02:01:28.866Z,15.23
2023-10-04T02:03:56.896Z,13.95
2023-10-04T02:06:24.607Z,15.32
2023-10-04T02:08:51.769Z,15.63
2023-10-04T02:11:22.916Z,14.63
2023-10-04T02:13:52.175Z,16.00
2023-10-04T02:16:24.278Z,16.45
2023-10-04T02:18:53.491Z,15.98
2023-10-04T02:21:22.433Z,15.40
2023-10-04T02:23:50.492Z,14.70
2023-10-04T02:26:17.538Z,14.65
2023-10-04T02:28:46.538Z,15.05
2023-10-04T02:31:13.832Z,14.88
2023-10-04T02:33:41.077Z,14.40
2023-10-04T02:36:08.941Z,14.32
2023-10-04T02:38:37.945Z,15.15
2023-10-04T02:41:07.440Z,17.42
2023-10-04T02:43:34.889Z,16.50
2023-10-04T02:46:02.275Z,16.50
2023-10-04T02:48:31.959Z,16.02
2023-10-04T02:51:00.192Z,14.85
2023-10-04T02:53:28.517Z,16.27
2023-10-04T02:55:58.556Z,15.35
2023-10-04T02:58:36.168Z,13.30
2023-10-04T03:01:04.962Z,15.38
2023-10-04T03:03:33.257Z,14.43
2023-10-04T03:06:05.921Z,14.40
2023-10-04T03:08:34.135Z,13.73
2023-10-04T03:13:35.820Z,14.10
2023-10-04T03:16:05.354Z,14.13
2023-10-04T03:18:35.235Z,14.57
2023-10-04T03:21:03.582Z,14.88
2023-10-04T03:23:43.406Z,14.48
2023-10-04T03:26:30.442Z,16.25
2023-10-04T03:28:58.780Z,15.50
2023-10-04T03:31:30.335Z,15.10
2023-10-04T03:34:00.556Z,15.20
2023-10-04T03:36:30.717Z,14.98
2023-10-04T03:39:05.171Z,14.82
2023-10-04T03:41:33.962Z,14.75
2023-10-04T03:44:06.932Z,15.25
2023-10-04T03:46:35.454Z,14.98
2023-10-04T03:49:05.593Z,15.65
2023-10-04T03:51:32.924Z,17.58
2023-10-04T03:54:08.364Z,16.45
2023-10-04T03:56:37.490Z,16.73
2023-10-04T03:59:05.114Z,14.88
2023-10-04T04:01:33.447Z,16.35
2023-10-04T04:04:05.148Z,16.47
2023-10-04T04:06:32.547Z,16.95
2023-10-04T04:09:04.622Z,16.88
2023-10-04T04:11:33.021Z,16.00
2023-10-04T04:14:00.134Z,16.42
2023-10-04T04:16:27.350Z,16.73
2023-10-04T04:18:56.463Z,16.00
2023-10-04T04:21:29.945Z,17.38
2023-10-04T04:23:57.401Z,17.15
2023-10-04T04:26:28.756Z,17.77
2023-10-04T04:28:56.409Z,16.52
2023-10-04T04:31:24.343Z,17.67
2023-10-04T04:33:52.218Z,18.25
2023-10-04T04:36:29.156Z,17.55
2023-10-04T04:39:07.519Z,18.13
2023-10-04T04:41:37.016Z,16.90
2023-10-04T04:44:11.332Z,19.35
2023-10-04T04:46:44.650Z,18.27
2023-10-04T04:49:13.315Z,18.33
2023-10-04T04:51:40.699Z,17.13
2023-10-04T04:54:08.102Z,19.50
2023-10-04T04:56:36.826Z,18.13
2023-10-04T04:59:11.662Z,19.35
2023-10-04T05:01:41.633Z,18.58
2023-10-04T05:04:10.153Z,17.60
2023-10-04T05:06:39.585Z,17.27
2023-10-04T05:09:07.775Z,16.20
2023-10-04T05:11:37.818Z,16.85
2023-10-04T05:14:07.960Z,17.10
2023-10-04T05:16:36.033Z,16.90
2023-10-04T05:19:05.816Z,18.23
2023-10-04T05:21:35.713Z,17.10
2023-10-04T05:24:04.337Z,16.77
2023-10-04T05:26:33.269Z,17.15
2023-10-04T05:29:02.375Z,17.25
2023-10-04T05:31:29.756Z,16.75
2023-10-04T05:33:56.855Z,16.42
2023-10-04T05:36:25.470Z,17.35
2023-10-04T05:38:52.623Z,16.58
2023-10-04T05:41:20.718Z,16.75
2023-10-04T05:43:47.779Z,16.40
2023-10-04T05:46:15.493Z,15.98
2023-10-04T05:48:42.708Z,16.98
2023-10-04T05:51:10.137Z,16.38
2023-10-04T05:53:39.114Z,16.83
2023-10-04T05:56:06.672Z,16.95
2023-10-04T05:58:36.077Z,17.10
2023-10-04T06:01:03.680Z,16.52
2023-10-04T06:03:34.306Z,17.02
2023-10-04T06:06:01.770Z,18.70
2023-10-04T06:08:28.961Z,38.47
2023-10-04T06:10:56.472Z,17.85
2023-10-04T06:13:24.322Z,18.23
2023-10-04T06:15:55.974Z,18.33
2023-10-04T06:18:29.918Z,18.52
2023-10-04T06:20:58.121Z,19.08
2023-10-04T06:23:26.090Z,18.55
2023-10-04T06:25:53.328Z,17.73
2023-10-04T06:28:21.411Z,17.30
2023-10-04T06:30:53.863Z,18.30
2023-10-04T06:33:21.487Z,17.10
2023-10-04T06:35:48.961Z,17.58
2023-10-04T06:38:16.612Z,17.45
2023-10-04T06:40:44.862Z,18.00
2023-10-04T06:43:16.158Z,19.75
2023-10-04T06:45:44.184Z,17.15
2023-10-04T06:48:12.020Z,17.33
2023-10-04T06:50:43.248Z,17.98
2023-10-04T06:53:11.047Z,18.42
2023-10-04T06:55:39.288Z,18.60
2023-10-04T06:58:10.285Z,17.48
2023-10-04T07:00:39.264Z,18.58
2023-10-04T07:03:06.945Z,18.60
2023-10-04T07:05:36.387Z,16.58
2023-10-04T07:08:05.691Z,18.73
2023-10-04T07:10:33.557Z,19.00
2023-10-04T07:13:02.995Z,18.35
2023-10-04T07:15:38.033Z,17.73
2023-10-04T07:18:11.083Z,18.40
2023-10-04T07:20:39.676Z,19.77
2023-10-04T07:23:10.137Z,18.83
2023-10-04T07:25:39.227Z,18.45
2023-10-04T07:28:10.437Z,18.88
2023-10-04T07:30:39.186Z,17.52
2023-10-04T07:33:06.675Z,19.23
2023-10-04T07:35:34.978Z,18.48
2023-10-04T07:38:02.806Z,18.30
2023-10-04T07:40:32.306Z,19.27
2023-10-04T07:43:02.425Z,19.25
2023-10-04T07:45:31.323Z,19.73
2023-10-04T07:47:59.295Z,17.40
2023-10-04T07:50:27.827Z,17.08
2023-10-04T07:53:00.252Z,17.45
2023-10-04T07:55:28.140Z,17.27
2023-10-04T07:58:04.392Z,18.70
2023-10-04T08:00:33.325Z,16.90
2023-10-04T08:03:00.666Z,18.40
2023-10-04T08:05:32.656Z,17.77
2023-10-04T08:08:05.070Z,18.00
2023-10-04T08:10:35.083Z,18.13
2023-10-04T08:13:05.259Z,17.40
2023-10-04T08:15:34.489Z,17.45
2023-10-04T08:18:02.990Z,17.80
2023-10-04T08:20:31.633Z,17.48
2023-10-04T08:22:59.312Z,17.70
2023-10-04T08:25:30.070Z,17.08
2023-10-04T08:27:58.691Z,16.98
2023-10-04T08:30:27.117Z,16.88
2023-10-04T08:32:55.187Z,15.30
2023-10-04T08:35:26.233Z,15.40
2023-10-04T08:37:57.686Z,17.02
2023-10-04T08:40:28.755Z,15.55
2023-10-04T08:42:57.369Z,15.65
2023-10-04T08:45:26.511Z,15.17
2023-10-04T08:50:35.905Z,15.30
2023-10-04T08:53:19.852Z,15.85
2023-10-04T08:55:53.068Z,16.10
2023-10-04T08:58:21.220Z,15.38
2023-10-04T09:00:52.391Z,16.20
2023-10-04T09:03:24.238Z,15.02
2023-10-04T09:05:55.517Z,15.68
2023-10-04T09:08:25.852Z,14.35
2023-10-04T09:10:56.549Z,15.20
2023-10-04T09:13:25.011Z,14.50
2023-10-04T09:15:52.746Z,14.18
2023-10-04T09:18:28.015Z,14.50
2023-10-04T09:20:55.575Z,13.90
2023-10-04T09:23:25.852Z,13.23
2023-10-04T09:25:57.077Z,12.98
2023-10-04T09:28:42.287Z,14.93
2023-10-04T09:31:16.601Z,13.52
2023-10-04T09:33:45.483Z,14.82
2023-10-04T09:36:12.939Z,14.20
2023-10-04T09:38:41.085Z,14.98
2023-10-04T09:41:11.842Z,14.13
2023-10-04T09:43:41.676Z,14.65
2023-10-04T09:46:14.152Z,13.18
2023-10-04T09:48:47.835Z,13.98
2023-10-04T09:51:16.057Z,13.50
2023-10-04T09:53:43.824Z,12.90
2023-10-04T09:56:14.752Z,13.15
2023-10-04T09:58:50.932Z,13.88
2023-10-04T10:01:22.192Z,13.07
2023-10-04T10:04:09.381Z,12.80
2023-10-04T10:06:53.093Z,13.13
2023-10-04T10:09:24.363Z,13.63
2023-10-04T10:11:53.903Z,13.25
2023-10-04T10:16:55.912Z,11.43
2023-10-04T10:19:28.413Z,12.82
2023-10-04T10:22:20.416Z,12.30
2023-10-04T10:24:57.861Z,11.73
2023-10-04T10:27:29.973Z,12.02
2023-10-04T10:30:01.032Z,12.20
2023-10-04T10:32:28.251Z,11.93
2023-10-04T10:35:14.203Z,10.48
2023-10-04T10:37:41.669Z,9.90
2023-10-04T10:40:36.341Z,11.07
2023-10-04T10:43:10.897Z,9.80
2023-10-04T10:45:38.882Z,9.77
2023-10-04T10:48:11.499Z,11.20
2023-10-04T10:50:41.324Z,9.98
2023-10-04T10:53:12.312Z,9.40
2023-10-04T10:55:42.913Z,8.25
2023-10-04T10:58:10.164Z,8.50
2023-10-04T11:00:37.502Z,11.65
2023-10-04T11:03:12.565Z,8.57
2023-10-04T11:05:39.983Z,9.20
2023-10-04T11:08:13.629Z,9.10
2023-10-04T11:10:41.929Z,8.20
2023-10-04T11:13:10.221Z,8.55
2023-10-04T11:15:38.105Z,9.57
2023-10-04T11:18:08.100Z,8.90
2023-10-04T11:20:38.577Z,8.20
2023-10-04T11:23:07.381Z,8.07
2023-10-04T11:25:34.561Z,7.25
2023-10-04T11:28:02.078Z,7.35
2023-10-04T11:30:34.659Z,7.00
2023-10-04T11:33:02.328Z,6.97
2023-10-04T11:35:39.721Z,6.78
2023-10-04T11:38:16.722Z,7.93
2023-10-04T11:40:51.306Z,6.38
2023-10-04T11:43:19.270Z,8.30
2023-10-04T11:45:46.620Z,7.47
2023-10-04T11:48:14.553Z,7.78
2023-10-04T11:50:50.222Z,6.57
2023-10-04T11:53:30.589Z,6.80
2023-10-04T11:56:02.761Z,6.90
2023-10-04T11:58:32.248Z,5.63
2023-10-04T12:01:07.188Z,6.30
2023-10-04T12:03:37.486Z,6.95
2023-10-04T12:06:06.523Z,7.57
2023-10-04T12:08:36.460Z,6.32
2023-10-04T12:11:14.695Z,5.82
2023-10-04T12:13:42.087Z,6.63
2023-10-04T12:16:10.103Z,6.55
2023-10-04T12:18:38.634Z,6.88
2023-10-04T12:21:05.744Z,6.55
2023-10-04T12:23:35.588Z,5.97
2023-10-04T12:26:04.672Z,6.97
2023-10-04T12:28:33.627Z,6.90
2023-10-04T12:31:03.369Z,6.50
2023-10-04T12:33:36.340Z,6.85
2023-10-04T12:36:06.437Z,6.43
2023-10-04T12:38:37.988Z,6.97
2023-10-04T12:41:06.563Z,6.95
2023-10-04T12:43:33.673Z,6.50
2023-10-04T12:46:02.426Z,6.90
2023-10-04T12:48:29.924Z,6.63
2023-10-04T12:50:57.130Z,6.63
2023-10-04T12:53:24.926Z,6.40
2023-10-04T12:55:52.083Z,6.05
2023-10-04T12:58:21.635Z,6.20
2023-10-04T13:00:52.829Z,6.93
2023-10-04T13:03:20.487Z,6.65
2023-10-04T13:05:48.180Z,7.03
2023-10-04T13:08:22.559Z,7.03
2023-10-04T13:10:50.331Z,8.07
2023-10-04T13:13:17.663Z,6.88
2023-10-04T13:15:46.242Z,7.03
2023-10-04T13:18:13.401Z,6.78
2023-10-04T13:20:45.797Z,7.55
2023-10-04T13:23:13.493Z,7.38
2023-10-04T13:25:40.736Z,8.02
2023-10-04T13:28:11.665Z,7.32
2023-10-04T13:30:38.849Z,7.63
2023-10-04T13:33:06.311Z,7.13
2023-10-04T13:35:36.196Z,7.38
2023-10-04T13:38:05.340Z,7.18
2023-10-04T13:40:34.905Z,8.75
2023-10-04T13:43:06.544Z,6.97
2023-10-04T13:45:35.562Z,7.13
2023-10-04T13:50:43.538Z,6.70
2023-10-04T13:53:17.480Z,7.45
2023-10-04T13:55:45.790Z,6.88
2023-10-04T13:58:19.790Z,6.15
2023-10-04T14:00:48.059Z,6.32
2023-10-04T14:03:15.415Z,6.13
2023-10-04T14:05:43.328Z,7.32
2023-10-04T14:08:10.872Z,6.97
2023-10-04T14:10:39.082Z,6.50
2023-10-04T14:13:07.891Z,6.93
2023-10-04T14:15:35.233Z,6.63
2023-10-04T14:18:05.993Z,6.95
2023-10-04T14:20:33.237Z,6.32
2023-10-04T14:23:00.469Z,8.15
2023-10-04T14:25:29.656Z,7.35
2023-10-04T14:30:26.683Z,6.72
2023-10-04T14:32:54.677Z,6.70
2023-10-04T14:35:22.696Z,7.15
2023-10-04T14:37:50.353Z,6.65
2023-10-04T14:40:23.809Z,6.47
2023-10-04T14:42:53.625Z,6.30
2023-10-04T14:45:21.255Z,6.70
2023-10-04T14:47:48.581Z,7.88
2023-10-04T14:50:16.089Z,7.30
2023-10-04T14:52:44.174Z,6.18
2023-10-04T14:55:12.337Z,6.95
2023-10-04T14:57:40.576Z,7.65
2023-10-04T15:00:12.294Z,7.47
2023-10-04T15:02:40.105Z,6.82
2023-10-04T15:05:08.231Z,7.25
2023-10-04T15:07:35.852Z,7.32
2023-10-04T15:10:04.192Z,5.95
2023-10-04T15:12:33.412Z,7.05
2023-10-04T15:15:02.009Z,6.80
2023-10-04T15:17:32.030Z,6.85
2023-10-04T15:19:59.169Z,6.78
2023-10-04T15:22:31.675Z,7.47
2023-10-04T15:25:05.112Z,8.00
2023-10-04T15:27:32.600Z,9.00
2023-10-04T15:29:59.827Z,7.45
2023-10-04T15:32:26.950Z,6.93
2023-10-04T15:34:53.904Z,50.80
2023-10-04T15:37:21.201Z,87.60
2023-10-04T15:39:48.246Z,40.95
2023-10-04T15:42:17.020Z,11.85
2023-10-04T15:44:44.048Z,7.10
2023-10-04T15:47:11.032Z,9.10
2023-10-04T15:49:38.591Z,8.35
2023-10-04T15:52:05.872Z,7.28
2023-10-04T15:54:33.820Z,6.47
2023-10-04T15:57:00.869Z,6.82
2023-10-04T15:59:28.544Z,7.22
2023-10-04T16:01:58.374Z,6.78
2023-10-04T16:04:25.722Z,7.13
2023-10-04T16:06:53.067Z,6.22
2023-10-04T16:09:20.335Z,6.40
2023-10-04T16:11:47.416Z,6.80
2023-10-04T16:14:16.088Z,6.82
2023-10-04T16:16:43.259Z,7.03
2023-10-04T16:19:10.462Z,7.78
2023-10-04T16:21:37.690Z,9.05
2023-10-04T16:24:05.209Z,8.25
2023-10-04T16:26:32.633Z,7.60
2023-10-04T16:29:01.439Z,9.20
2023-10-04T16:31:28.868Z,6.78
2023-10-04T16:33:55.864Z,7.03
2023-10-04T16:36:22.889Z,7.55
2023-10-04T16:38:49.998Z,7.70
2023-10-04T16:41:17.014Z,7.47
2023-10-04T16:43:44.202Z,8.93
2023-10-04T16:46:11.263Z,10.15
2023-10-04T16:48:38.621Z,9.45
2023-10-04T16:51:05.944Z,10.35
2023-10-04T16:53:33.093Z,13.25
2023-10-04T16:56:00.247Z,15.18
2023-10-04T16:58:27.273Z,16.60
2023-10-04T17:00:55.151Z,11.93
2023-10-04T17:03:22.436Z,10.95
2023-10-04T17:05:49.602Z,9.07
2023-10-04T17:08:16.630Z,8.93
2023-10-04T17:10:43.750Z,22.77
2023-10-04T17:13:11.875Z,13.57
2023-10-04T17:15:39.262Z,11.48
2023-10-04T17:18:06.839Z,12.05
2023-10-04T17:20:33.872Z,10.40
2023-10-04T17:23:00.877Z,10.18
2023-10-04T17:25:27.967Z,8.93
2023-10-04T17:27:55.289Z,8.00
2023-10-04T17:30:25.201Z,9.13
2023-10-04T17:32:52.324Z,8.23
2023-10-04T17:35:19.582Z,8.07
2023-10-04T17:37:46.921Z,8.05
2023-10-04T17:40:17.171Z,8.15
2023-10-04T17:42:45.929Z,8.02
2023-10-04T17:45:13.419Z,8.25
2023-10-04T17:47:40.733Z,9.20
2023-10-04T17:50:08.843Z,8.63
2023-10-04T17:52:36.034Z,9.68
2023-10-04T17:55:05.402Z,10.38
2023-10-04T17:57:32.914Z,9.15
2023-10-04T18:00:02.632Z,8.95
2023-10-04T18:02:34.822Z,9.32
2023-10-04T18:05:01.957Z,9.35
2023-10-04T18:07:31.046Z,10.90
2023-10-04T18:09:58.978Z,10.05
2023-10-04T18:12:26.775Z,9.77
2023-10-04T18:14:53.918Z,9.38
2023-10-04T18:17:21.082Z,8.75
2023-10-04T18:19:48.284Z,8.27
2023-10-04T18:22:15.454Z,9.75
2023-10-04T18:24:42.923Z,9.35
2023-10-04T18:27:11.291Z,9.50
2023-10-04T18:29:38.815Z,8.82
2023-10-04T18:32:06.007Z,9.32
2023-10-04T18:34:33.648Z,8.25
2023-10-04T18:37:04.231Z,8.55
2023-10-04T18:39:32.386Z,9.55
2023-10-04T18:41:59.618Z,8.68
2023-10-04T18:44:26.608Z,7.97
2023-10-04T18:46:54.025Z,8.60
2023-10-04T18:49:22.761Z,8.80
2023-10-04T18:51:50.258Z,8.73
2023-10-04T18:54:17.652Z,9.02
2023-10-04T18:56:44.800Z,8.23
2023-10-04T18:59:11.868Z,8.77
2023-10-04T19:01:40.647Z,10.43
2023-10-04T19:04:08.772Z,7.68
2023-10-04T19:06:36.837Z,8.13
2023-10-04T19:09:10.545Z,11.02
2023-10-04T19:11:37.895Z,8.18
2023-10-04T19:14:09.073Z,7.47
2023-10-04T19:16:36.295Z,8.20
2023-10-04T19:19:05.145Z,7.82
2023-10-04T19:21:32.359Z,8.70
2023-10-04T19:24:01.128Z,7.38
2023-10-04T19:26:28.421Z,8.95
2023-10-04T19:28:55.977Z,8.77
2023-10-04T19:31:23.201Z,8.90
2023-10-04T19:33:50.487Z,8.65
2023-10-04T19:36:17.853Z,9.27
2023-10-04T19:38:44.836Z,8.60
2023-10-04T19:41:15.059Z,8.88
2023-10-04T19:43:42.105Z,9.73
2023-10-04T19:46:09.737Z,9.13
2023-10-04T19:48:38.792Z,8.68
2023-10-04T19:51:10.876Z,12.65
2023-10-04T19:53:38.137Z,8.80
2023-10-04T19:56:06.908Z,9.77
2023-10-04T19:58:34.065Z,10.23
2023-10-04T20:01:02.661Z,8.68
2023-10-04T20:03:33.285Z,9.65
2023-10-04T20:06:01.777Z,9.60
2023-10-04T20:08:29.719Z,10.18
2023-10-04T20:10:57.738Z,9.60
2023-10-04T20:13:25.574Z,10.88
2023-10-04T20:15:52.821Z,10.65
2023-10-04T20:18:20.061Z,10.77
2023-10-04T20:20:47.225Z,10.35
2023-10-04T20:23:14.603Z,10.77
2023-10-04T20:25:43.014Z,10.40
2023-10-04T20:28:10.429Z,10.83
2023-10-04T20:30:37.601Z,10.95
2023-10-04T20:33:05.188Z,10.98
2023-10-04T20:35:33.410Z,12.10
2023-10-04T20:38:00.476Z,12.05
2023-10-04T20:40:27.494Z,11.57
2023-10-04T20:42:54.917Z,11.73
2023-10-04T20:45:22.024Z,12.20
2023-10-04T20:47:50.632Z,11.70
2023-10-04T20:50:18.507Z,12.85
2023-10-04T20:52:48.707Z,12.02
2023-10-04T20:55:18.915Z,11.98
2023-10-04T20:57:46.801Z,13.10
2023-10-04T21:00:15.755Z,12.82
2023-10-04T21:02:43.728Z,12.57
2023-10-04T21:05:13.821Z,12.57
2023-10-04T21:07:43.442Z,12.00
2023-10-04T21:10:12.858Z,13.35
2023-10-04T21:12:40.912Z,12.52
2023-10-04T21:15:12.905Z,12.70
2023-10-04T21:17:40.911Z,12.57
2023-10-04T21:20:09.662Z,13.65
2023-10-04T21:22:37.160Z,13.20
2023-10-04T21:25:05.851Z,13.25
2023-10-04T21:27:33.427Z,13.15
2023-10-04T21:30:03.199Z,13.20
2023-10-04T21:32:40.593Z,13.55
2023-10-04T21:35:29.389Z,12.90
2023-10-04T21:37:58.403Z,13.68
2023-10-04T21:40:29.376Z,13.10
2023-10-04T21:43:00.727Z,13.10
2023-10-04T21:45:31.604Z,13.68
2023-10-04T21:48:03.794Z,12.55
2023-10-04T21:50:33.824Z,13.02
2023-10-04T21:53:02.232Z,13.82
2023-10-04T21:55:31.221Z,13.45
2023-10-04T21:57:59.950Z,13.80
2023-10-04T22:00:30.249Z,13.15
2023-10-04T22:02:58.675Z,13.70
2023-10-04T22:05:27.067Z,13.25
2023-10-04T22:07:59.945Z,13.93
2023-10-04T22:10:27.211Z,14.32
2023-10-04T22:12:54.529Z,12.98
2023-10-04T22:15:24.898Z,13.60
2023-10-04T22:17:52.476Z,12.98
2023-10-04T22:20:20.943Z,13.63
2023-10-04T22:22:49.580Z,12.43
2023-10-04T22:25:19.660Z,12.95
2023-10-04T22:27:50.442Z,13.65
2023-10-04T22:30:22.696Z,13.38
2023-10-04T22:32:53.106Z,12.57
2023-10-04T22:35:24.213Z,13.00
2023-10-04T22:37:52.833Z,13.40
2023-10-04T22:40:20.785Z,12.98
2023-10-04T22:42:48.708Z,13.10
2023-10-04T22:45:17.110Z,13.15
2023-10-04T22:47:48.279Z,13.13
2023-10-04T22:50:17.872Z,12.50
2023-10-04T22:52:45.112Z,12.57
2023-10-04T22:55:14.130Z,12.82
2023-10-04T22:57:42.936Z,12.48
2023-10-04T23:00:26.868Z,12.75
2023-10-04T23:02:57.737Z,11.73
2023-10-04T23:05:27.194Z,12.23
2023-10-04T23:07:58.381Z,12.02
2023-10-04T23:10:27.119Z,12.48
2023-10-04T23:12:58.592Z,12.40
2023-10-04T23:15:30.196Z,12.63
2023-10-04T23:18:21.883Z,13.23
2023-10-04T23:20:49.354Z,11.98
2023-10-04T23:23:16.932Z,12.23
2023-10-04T23:25:47.634Z,12.15
2023-10-04T23:28:16.563Z,12.00
2023-10-04T23:30:45.468Z,12.30
2023-10-04T23:33:20.980Z,12.05
2023-10-04T23:35:59.593Z,11.98
2023-10-04T23:38:33.904Z,11.82
2023-10-04T23:41:11.499Z,12.20
2023-10-04T23:43:42.543Z,11.65
2023-10-04T23:46:26.846Z,11.65
2023-10-04T23:49:00.196Z,11.85
2023-10-04T23:51:29.129Z,11.02
2023-10-04T23:54:14.911Z,11.75
2023-10-04T23:57:01.934Z,11.77
2023-10-04T23:59:29.259Z,11.80
